Time;durP1;ratioP1;P1;durP2;ratioP2;P2;SDS_P1;SDS_P2;PMS_P1;PMS_P2;Temp;Humidity;BMP_temperature;BMP_pressure;BME280_temperature;BME280_humidity;BME280_pressure;Samples;Min_cycle;Max_cycle;Signal;HPM_P1;HPM_P2
2021/05/11 00:01:45;;;;;;;1.60;0.80;;;25.00;35.90;;;;;;5034736;28;20434;-70
2021/05/11 00:04:12;;;;;;;1.90;0.80;;;25.00;35.90;;;;;;5034841;28;20425;-77
2021/05/11 00:06:38;;;;;;;1.50;0.70;;;25.00;35.80;;;;;;5017103;28;20398;-77
2021/05/11 00:09:05;;;;;;;1.73;0.85;;;25.00;35.80;;;;;;5034839;28;20383;-78
2021/05/11 00:11:31;;;;;;;1.55;0.63;;;25.00;35.80;;;;;;5034870;28;20399;-77
2021/05/11 00:13:56;;;;;;;1.50;0.73;;;25.00;35.80;;;;;;5034233;28;20407;-75
2021/05/11 00:16:22;;;;;;;1.92;0.77;;;25.00;35.70;;;;;;5034704;28;20395;-77
2021/05/11 00:18:47;;;;;;;1.30;0.60;;;25.00;35.70;;;;;;5034686;28;20915;-77
2021/05/11 00:21:13;;;;;;;1.93;0.70;;;25.00;35.80;;;;;;5034687;28;20536;-78
2021/05/11 00:23:39;;;;;;;1.45;0.70;;;25.00;35.80;;;;;;5034310;28;20430;-78
2021/05/11 00:26:04;;;;;;;2.70;0.70;;;25.00;35.70;;;;;;5034324;28;20386;-78
2021/05/11 00:28:30;;;;;;;1.73;0.70;;;25.00;35.70;;;;;;5016944;28;20403;-78
2021/05/11 00:30:56;;;;;;;1.20;0.60;;;25.00;35.70;;;;;;5034595;28;20423;-78
2021/05/11 00:33:21;;;;;;;1.80;0.77;;;25.00;35.70;;;;;;5034347;28;20425;-75
2021/05/11 00:35:47;;;;;;;1.73;0.70;;;25.00;35.70;;;;;;5033524;28;20423;-65
2021/05/11 00:38:13;;;;;;;1.53;0.60;;;25.00;35.70;;;;;;5016542;28;20415;-78
2021/05/11 00:40:39;;;;;;;2.10;0.70;;;24.90;35.70;;;;;;5034228;28;20717;-78
2021/05/11 00:43:04;;;;;;;1.40;0.60;;;24.90;35.90;;;;;;5034265;28;20474;-76
2021/05/11 00:45:30;;;;;;;2.47;0.70;;;24.90;36.40;;;;;;5033588;28;20470;-78
2021/05/11 00:47:55;;;;;;;1.60;0.70;;;25.00;35.70;;;;;;5033609;28;20419;-78
2021/05/11 00:50:21;;;;;;;2.20;0.60;;;25.00;35.70;;;;;;5034190;28;20391;-77
2021/05/11 00:52:47;;;;;;;1.85;0.60;;;25.00;35.70;;;;;;5033955;28;20422;-78
2021/05/11 00:55:13;;;;;;;1.60;0.60;;;25.00;35.60;;;;;;5033965;28;20395;-77
2021/05/11 00:57:40;;;;;;;1.65;0.70;;;25.00;35.60;;;;;;5033680;28;20411;-77
2021/05/11 01:00:09;;;;;;;1.60;0.77;;;25.00;35.60;;;;;;5033459;28;20391;-75
2021/05/11 01:02:35;;;;;;;1.33;0.60;;;25.00;35.60;;;;;;5033875;28;20441;-78
2021/05/11 01:05:01;;;;;;;0.85;0.50;;;25.00;35.60;;;;;;5033728;28;20399;-76
2021/05/11 01:07:26;;;;;;;1.80;0.70;;;25.00;35.60;;;;;;5033862;28;20387;-77
2021/05/11 01:09:53;;;;;;;1.17;0.63;;;25.00;35.70;;;;;;5033366;28;20391;-78
2021/05/11 01:12:18;;;;;;;1.30;0.70;;;25.00;35.60;;;;;;5033521;28;20411;-78
2021/05/11 01:14:46;;;;;;;1.88;0.60;;;25.00;35.60;;;;;;5033633;28;20910;-78
2021/05/11 01:17:17;;;;;;;1.35;0.57;;;25.00;35.60;;;;;;5033653;28;20387;-77
2021/05/11 01:19:49;;;;;;;1.35;0.70;;;25.00;35.60;;;;;;5033240;28;20752;-74
2021/05/11 01:22:35;;;;;;;1.47;0.70;;;25.00;35.60;;;;;;5033556;28;20395;-76
2021/05/11 01:25:08;;;;;;;2.05;0.63;;;25.00;35.60;;;;;;5033315;28;20931;-77
2021/05/11 01:43:58;;;;;;;1.35;0.70;;;24.90;35.50;;;;;;5032532;28;20438;-65
2021/05/11 02:24:26;;;;;;;1.33;0.60;;;24.90;35.30;;;;;;5032414;28;20438;-77
2021/05/11 02:26:51;;;;;;;1.00;0.50;;;24.90;35.30;;;;;;5032190;28;20760;-78
2021/05/11 02:29:17;;;;;;;1.38;0.57;;;24.90;35.30;;;;;;5032318;28;20798;-78
2021/05/11 02:31:43;;;;;;;2.65;0.80;;;24.90;35.30;;;;;;5031951;28;20402;-64
2021/05/11 02:34:08;;;;;;;1.00;0.50;;;24.90;35.30;;;;;;5031852;28;20395;-78
2021/05/11 02:36:34;;;;;;;1.23;0.70;;;24.90;35.40;;;;;;5032116;28;20399;-78
2021/05/11 02:38:59;;;;;;;1.25;0.60;;;24.80;35.30;;;;;;5031973;28;20434;-74
2021/05/11 02:41:25;;;;;;;1.33;0.60;;;24.90;35.30;;;;;;5014358;28;20871;-76
2021/05/11 02:43:51;;;;;;;0.85;0.55;;;24.90;35.30;;;;;;5031474;28;20902;-75
2021/05/11 02:46:16;;;;;;;1.30;0.63;;;24.90;35.30;;;;;;5031934;28;20474;-77
2021/05/11 02:48:42;;;;;;;1.48;0.63;;;24.90;35.30;;;;;;5014235;28;20443;-78
2021/05/11 02:51:08;;;;;;;2.00;0.83;;;24.90;35.30;;;;;;5031467;28;20396;-70
2021/05/11 02:53:33;;;;;;;1.20;0.60;;;24.90;35.30;;;;;;5031639;28;20402;-78
2021/05/11 02:55:59;;;;;;;1.13;0.60;;;24.90;35.30;;;;;;5013430;28;20396;-78
2021/05/11 02:58:24;;;;;;;1.50;0.50;;;24.90;35.30;;;;;;5031903;28;20426;-77
2021/05/11 03:00:50;;;;;;;1.00;0.50;;;24.90;35.30;;;;;;5031851;28;20717;-76
2021/05/11 03:03:16;;;;;;;1.55;0.60;;;24.90;35.20;;;;;;5031875;28;20387;-77
2021/05/11 03:05:41;;;;;;;1.27;0.60;;;24.90;35.20;;;;;;5031857;28;20491;-77
2021/05/11 03:08:07;;;;;;;1.35;0.55;;;24.90;35.20;;;;;;5030932;28;20395;-77
2021/05/11 03:10:32;;;;;;;1.30;0.70;;;24.90;35.20;;;;;;5031605;28;20388;-77
2021/05/11 03:12:58;;;;;;;1.40;0.60;;;24.90;35.20;;;;;;5031557;28;20407;-78
2021/05/11 03:15:24;;;;;;;1.90;0.60;;;24.80;35.20;;;;;;5031865;28;20383;-77
2021/05/11 03:17:49;;;;;;;1.30;0.63;;;24.90;35.20;;;;;;5013567;28;20489;-77
2021/05/11 03:20:15;;;;;;;1.55;0.55;;;24.80;35.10;;;;;;5031459;28;20470;-77
2021/05/11 03:22:41;;;;;;;1.30;0.50;;;24.80;35.10;;;;;;5031517;28;20395;-77
2021/05/11 03:25:08;;;;;;;1.30;0.70;;;24.80;35.20;;;;;;5031622;28;20466;-77
2021/05/11 03:27:33;;;;;;;1.52;0.70;;;24.80;35.20;;;;;;5031580;28;20407;-77
2021/05/11 03:29:59;;;;;;;1.10;0.57;;;24.80;35.10;;;;;;5031042;28;20440;-78
2021/05/11 03:32:25;;;;;;;2.70;0.73;;;24.80;35.10;;;;;;5031549;28;20871;-78
2021/05/11 03:34:51;;;;;;;1.17;0.70;;;24.80;35.10;;;;;;5031510;28;20368;-77
2021/05/11 03:37:16;;;;;;;1.45;0.70;;;24.80;35.10;;;;;;5031524;28;20873;-74
2021/05/11 03:39:43;;;;;;;0.97;0.50;;;24.70;35.20;;;;;;5031376;28;20395;-74
2021/05/11 03:44:39;;;;;;;1.37;0.60;;;24.80;35.20;;;;;;5031496;28;20489;-78
2021/05/11 03:47:05;;;;;;;1.17;0.60;;;24.80;35.20;;;;;;5013471;28;20518;-67
2021/05/11 03:49:31;;;;;;;1.08;0.40;;;24.80;35.10;;;;;;5031185;28;20841;-63
2021/05/11 03:51:57;;;;;;;0.90;0.50;;;24.80;35.00;;;;;;5013098;28;20395;-77
2021/05/11 03:54:23;;;;;;;1.50;0.60;;;24.80;35.00;;;;;;5013619;28;20769;-78
2021/05/11 03:56:48;;;;;;;0.90;0.52;;;24.80;35.00;;;;;;5013748;28;20867;-78
2021/05/11 03:59:14;;;;;;;1.27;0.60;;;24.80;35.00;;;;;;5031317;28;20414;-78
2021/05/11 04:01:39;;;;;;;1.15;0.52;;;24.80;34.90;;;;;;5031230;28;20383;-78
2021/05/11 04:04:05;;;;;;;1.23;0.60;;;24.80;34.90;;;;;;5030755;28;20391;-78
2021/05/11 04:06:31;;;;;;;1.38;0.55;;;24.80;34.80;;;;;;5031219;28;20391;-78
2021/05/11 04:09:04;;;;;;;1.13;0.53;;;24.80;34.90;;;;;;5031238;28;20392;-77
2021/05/11 04:16:46;;;;;;;1.58;0.60;;;24.80;34.80;;;;;;5031168;28;20374;-78
2021/05/11 04:19:12;;;;;;;1.00;0.50;;;24.80;34.70;;;;;;5031154;28;20450;-78
2021/05/11 04:21:38;;;;;;;1.23;0.60;;;24.80;34.80;;;;;;5034648;28;20821;-78
2021/05/11 04:24:05;;;;;;;0.90;0.50;;;24.80;34.80;;;;;;5034120;28;20469;-78
2021/05/11 04:26:32;;;;;;;0.98;0.55;;;24.80;34.80;;;;;;5034391;28;20391;-77
2021/05/11 04:28:58;;;;;;;0.85;0.50;;;24.80;34.80;;;;;;5034398;28;20399;-77
2021/05/11 04:31:24;;;;;;;0.95;0.50;;;24.80;34.80;;;;;;5032280;28;20395;-70
2021/05/11 04:33:50;;;;;;;1.00;0.60;;;24.80;34.80;;;;;;5044023;28;20465;-74
2021/05/11 04:36:16;;;;;;;1.30;0.52;;;24.80;34.80;;;;;;5040980;28;20426;-63
2021/05/11 04:38:43;;;;;;;2.60;0.60;;;24.80;34.90;;;;;;5032532;28;20426;-73
2021/05/11 04:41:09;;;;;;;3.10;0.63;;;24.70;34.70;;;;;;5033922;28;20484;-77
2021/05/11 04:43:36;;;;;;;2.38;0.70;;;24.70;34.20;;;;;;5034152;28;20383;-78
2021/05/11 04:46:15;;;;;;;2.58;0.60;;;24.70;34.30;;;;;;5016322;28;20398;-76
2021/05/11 04:48:41;;;;;;;3.85;0.70;;;24.60;34.40;;;;;;5034205;28;20387;-78
2021/05/11 04:51:07;;;;;;;2.25;0.77;;;24.60;34.60;;;;;;5034441;28;20398;-78
2021/05/11 04:53:32;;;;;;;2.50;0.90;;;24.50;34.60;;;;;;5034196;28;20430;-79
2021/05/11 04:55:58;;;;;;;1.63;0.63;;;24.60;34.80;;;;;;5016121;28;20398;-71
2021/05/11 04:58:24;;;;;;;1.83;0.67;;;24.60;34.90;;;;;;5030772;28;20898;-78
2021/05/11 05:00:50;;;;;;;1.92;0.68;;;24.60;35.10;;;;;;5033484;28;20395;-64
2021/05/11 05:03:24;;;;;;;2.35;0.77;;;24.60;35.30;;;;;;5033882;28;20754;-79
2021/05/11 05:05:50;;;;;;;2.65;0.90;;;24.70;35.50;;;;;;5033868;28;20383;-78
2021/05/11 05:08:15;;;;;;;3.72;0.80;;;24.60;35.50;;;;;;5032853;28;20403;-79
2021/05/11 05:10:41;;;;;;;3.73;0.90;;;24.60;36.10;;;;;;5033894;28;20392;-79
2021/05/11 05:13:07;;;;;;;3.10;0.85;;;24.60;36.70;;;;;;5033680;28;20434;-78
2021/05/11 05:15:32;;;;;;;2.27;0.60;;;24.60;36.90;;;;;;5034045;28;20539;-79
2021/05/11 05:17:58;;;;;;;3.28;0.80;;;24.60;37.10;;;;;;5033423;28;20903;-79
2021/05/11 05:20:24;;;;;;;3.37;0.80;;;24.60;36.90;;;;;;5033587;28;20383;-79
2021/05/11 05:22:50;;;;;;;2.10;0.80;;;24.60;37.10;;;;;;5033861;28;20856;-76
2021/05/11 05:25:21;;;;;;;2.40;0.83;;;24.60;36.80;;;;;;5033888;28;20395;-75
2021/05/11 05:30:19;;;;;;;3.53;0.73;;;24.60;36.80;;;;;;5033305;28;20395;-80
2021/05/11 05:32:45;;;;;;;3.78;0.75;;;24.60;37.10;;;;;;5033780;28;20504;-80
2021/05/11 05:35:11;;;;;;;3.28;0.80;;;24.70;37.10;;;;;;5033829;28;20407;-80
2021/05/11 05:37:37;;;;;;;3.50;0.77;;;24.70;37.00;;;;;;5033435;28;20407;-80
2021/05/11 05:40:05;;;;;;;2.72;0.80;;;24.70;36.80;;;;;;5033358;28;20774;-80
2021/05/11 05:42:31;;;;;;;4.23;0.93;;;24.70;36.40;;;;;;5033344;28;20523;-80
2021/05/11 05:44:57;;;;;;;3.85;0.70;;;24.70;36.40;;;;;;5033708;28;20395;-80
2021/05/11 05:47:22;;;;;;;3.63;0.80;;;24.70;36.10;;;;;;5033746;28;20874;-79
2021/05/11 05:49:52;;;;;;;3.65;1.25;;;24.70;36.60;;;;;;5015616;28;20406;-78
2021/05/11 05:52:22;;;;;;;3.55;0.80;;;24.80;36.10;;;;;;5032593;28;20391;-68
2021/05/11 05:54:48;;;;;;;3.88;0.80;;;24.80;36.50;;;;;;5042020;28;20492;-63
2021/05/11 05:57:15;;;;;;;3.38;0.90;;;24.90;36.20;;;;;;5035083;28;20928;-79
2021/05/11 05:59:44;;;;;;;3.55;0.80;;;24.90;35.70;;;;;;5052532;28;20420;-78
2021/05/11 06:02:16;;;;;;;2.60;0.80;;;24.90;35.30;;;;;;5052215;28;20412;-79
2021/05/11 06:04:42;;;;;;;3.60;0.80;;;25.00;35.00;;;;;;5052680;28;20393;-72
2021/05/11 06:07:07;;;;;;;3.03;0.90;;;25.00;34.80;;;;;;5052632;28;20436;-79
2021/05/11 06:09:33;;;;;;;1.50;0.60;;;25.00;34.70;;;;;;5052557;28;20788;-78
2021/05/11 06:12:09;;;;;;;4.65;0.82;;;25.00;34.50;;;;;;5052279;28;20488;-78
2021/05/11 06:17:16;;;;;;;2.72;0.95;;;25.00;34.40;;;;;;5052496;28;20452;-67
2021/05/11 06:19:47;;;;;;;2.80;0.90;;;25.10;34.50;;;;;;5052112;28;20730;-63
2021/05/11 06:22:14;;;;;;;3.30;0.70;;;25.10;34.40;;;;;;5051551;28;20392;-63
2021/05/11 06:24:40;;;;;;;3.72;0.93;;;25.10;34.40;;;;;;5051940;28;20431;-64
2021/05/11 06:27:08;;;;;;;2.80;0.80;;;25.10;34.50;;;;;;5052039;28;20829;-63
2021/05/11 06:29:39;;;;;;;2.67;0.93;;;25.10;34.40;;;;;;5051881;28;20781;-63
2021/05/11 06:32:06;;;;;;;6.03;1.00;;;25.20;34.30;;;;;;5051340;28;20385;-64
2021/05/11 06:34:32;;;;;;;2.00;0.70;;;25.20;34.20;;;;;;5051785;28;20901;-63
2021/05/11 06:36:59;;;;;;;2.55;0.80;;;25.20;34.10;;;;;;5051842;28;20413;-63
2021/05/11 06:39:25;;;;;;;2.33;0.90;;;25.30;34.20;;;;;;5051753;28;20413;-63
2021/05/11 06:41:52;;;;;;;1.73;0.80;;;25.30;34.10;;;;;;5051296;28;20444;-63
2021/05/11 06:54:43;;;;;;;2.20;0.90;;;25.40;34.00;;;;;;5051463;28;20393;-63
2021/05/11 06:57:09;;;;;;;2.00;0.77;;;25.40;33.90;;;;;;5051494;28;20774;-63
2021/05/11 06:59:35;;;;;;;2.22;0.73;;;25.40;33.90;;;;;;5051438;28;20449;-63
2021/05/11 07:02:02;;;;;;;2.72;1.10;;;25.50;33.90;;;;;;5051112;28;20394;-63
2021/05/11 07:04:28;;;;;;;1.92;0.70;;;25.50;33.80;;;;;;5051239;28;20416;-65
2021/05/11 07:06:54;;;;;;;2.17;0.70;;;25.60;33.90;;;;;;5051190;28;20377;-63
2021/05/11 07:09:35;;;;;;;1.75;0.80;;;25.60;33.80;;;;;;5033495;28;20389;-63
2021/05/11 07:14:26;;;;;;;1.80;0.70;;;25.60;33.70;;;;;;5051171;28;20446;-63
2021/05/11 07:16:52;;;;;;;1.60;0.80;;;25.60;33.90;;;;;;5033091;28;20393;-63
2021/05/11 07:19:17;;;;;;;2.37;0.80;;;25.70;33.90;;;;;;5050978;28;20425;-63
2021/05/11 07:21:43;;;;;;;2.10;0.60;;;25.60;33.80;;;;;;5050766;28;20401;-63
2021/05/11 07:24:09;;;;;;;1.57;0.70;;;25.70;33.90;;;;;;5050768;28;20395;-64
2021/05/11 07:26:45;;;;;;;1.88;0.80;;;25.70;33.90;;;;;;5050858;28;20400;-63
2021/05/11 07:29:27;;;;;;;2.38;1.05;;;25.60;33.80;;;;;;5051244;28;20385;-63
2021/05/11 07:31:53;;;;;;;2.75;0.90;;;25.70;33.90;;;;;;5051033;28;20393;-63
2021/05/11 07:34:20;;;;;;;2.13;1.20;;;25.70;33.80;;;;;;5050723;28;20496;-63
2021/05/11 07:36:46;;;;;;;2.67;1.30;;;25.70;33.80;;;;;;5050945;28;20492;-63
2021/05/11 07:39:12;;;;;;;2.85;1.30;;;25.70;33.70;;;;;;5051115;28;20496;-65
2021/05/11 07:41:37;;;;;;;2.53;1.30;;;25.80;33.70;;;;;;5050922;28;20393;-63
2021/05/11 07:44:03;;;;;;;2.40;1.27;;;25.80;33.70;;;;;;5033014;28;20398;-64
2021/05/11 08:15:29;;;;;;;6.85;2.50;;;25.80;34.70;;;;;;5054694;28;20477;-63
2021/05/11 08:21:56;;;;;;;5.97;2.42;;;25.60;34.40;;;;;;5054549;28;20911;-63
2021/05/11 08:28:54;;;;;;;3.50;1.90;;;25.40;34.40;;;;;;5054122;28;20491;-63
2021/05/11 08:31:19;;;;;;;3.20;1.80;;;25.40;34.50;;;;;;5053990;28;20476;-63
2021/05/11 08:33:45;;;;;;;4.63;2.00;;;25.30;34.50;;;;;;5054080;28;20438;-62
2021/05/11 08:36:11;;;;;;;3.58;2.00;;;25.30;34.50;;;;;;5053755;28;20482;-63
2021/05/11 08:38:37;;;;;;;3.95;2.00;;;25.30;34.60;;;;;;5035929;28;20917;-63
2021/05/11 08:41:03;;;;;;;3.27;1.90;;;25.30;34.60;;;;;;5036109;28;20446;-62
2021/05/11 08:43:30;;;;;;;3.80;2.10;;;25.30;34.60;;;;;;5053884;28;20410;-63
2021/05/11 08:45:57;;;;;;;2.42;1.70;;;25.20;34.60;;;;;;5035901;28;20404;-63
2021/05/11 08:48:23;;;;;;;4.10;2.00;;;25.10;34.70;;;;;;5053333;28;20389;-63
2021/05/11 08:50:58;;;;;;;3.80;2.00;;;25.10;34.80;;;;;;5053645;28;20902;-63
2021/05/11 09:27:09;;;;;;;9.48;5.15;;;24.70;37.10;;;;;;5052663;28;20737;-64
2021/05/11 09:32:24;;;;;;;8.97;5.20;;;24.60;36.80;;;;;;5052828;28;20927;-63
2021/05/11 10:36:42;;;;;;;4.00;2.40;;;24.20;37.40;;;;;;5051658;28;20404;-63
2021/05/11 10:49:31;;;;;;;3.15;2.00;;;24.10;37.50;;;;;;5051664;28;20385;-63
2021/05/11 10:52:23;;;;;;;3.35;2.13;;;24.10;37.50;;;;;;5051473;28;20389;-63
2021/05/11 10:55:14;;;;;;;3.92;1.98;;;24.10;37.60;;;;;;5051546;28;20420;-63
2021/05/11 10:57:57;;;;;;;2.90;2.15;;;24.10;37.60;;;;;;5051307;28;20385;-62
2021/05/11 11:00:35;;;;;;;3.47;1.90;;;24.10;37.60;;;;;;5050637;28;20385;-63
2021/05/11 11:03:15;;;;;;;4.83;2.00;;;24.10;37.60;;;;;;5050732;28;20385;-63
2021/05/11 11:05:45;;;;;;;3.50;2.15;;;24.00;37.60;;;;;;5050902;28;20389;-62
2021/05/11 11:08:34;;;;;;;4.20;2.17;;;24.10;37.60;;;;;;5033344;28;20389;-62
2021/05/11 11:11:10;;;;;;;3.50;1.70;;;24.50;38.20;;;;;;5050751;28;20397;-62
2021/05/11 11:13:38;;;;;;;3.15;1.63;;;25.00;37.30;;;;;;5051102;28;20406;-63
2021/05/11 11:16:04;;;;;;;4.90;1.70;;;25.10;36.60;;;;;;5040973;28;20961;-65
2021/05/11 11:18:29;;;;;;;5.93;1.80;;;25.30;36.80;;;;;;5016651;28;20867;-72
2021/05/11 11:22:01;;;;;;;6.07;1.77;;;25.40;36.30;;;;;;5031020;28;20456;-70
2021/05/11 11:23:56;;;;;;;3.58;1.55;;;25.50;36.00;;;;;;5020503;28;20477;-62
2021/05/11 11:26:31;;;;;;;2.72;1.40;;;25.50;35.70;;;;;;5030884;28;20474;-63
2021/05/11 11:29:06;;;;;;;5.23;1.53;;;25.40;35.50;;;;;;5014867;28;20468;-62
2021/05/11 11:31:36;;;;;;;3.17;1.50;;;25.40;35.40;;;;;;5035059;28;20391;-62
2021/05/11 11:34:21;;;;;;;4.37;1.40;;;25.40;35.40;;;;;;5035249;28;20387;-63
2021/05/11 11:37:01;;;;;;;6.07;1.35;;;25.40;35.50;;;;;;5053670;28;20741;-62
2021/05/11 11:39:29;;;;;;;2.95;1.30;;;25.30;35.60;;;;;;5037143;28;20453;-62
2021/05/11 11:41:58;;;;;;;4.78;1.83;;;25.30;35.40;;;;;;5055110;28;20432;-62
2021/05/11 11:44:26;;;;;;;4.22;1.25;;;25.30;35.40;;;;;;5054253;28;20389;-62
2021/05/11 11:47:01;;;;;;;5.15;1.60;;;25.30;35.10;;;;;;5036986;28;20739;-62
2021/05/11 11:49:30;;;;;;;2.63;1.10;;;25.30;35.10;;;;;;5036686;28;20737;-62
2021/05/11 11:52:02;;;;;;;2.75;1.10;;;25.30;35.30;;;;;;5054897;28;20429;-62
2021/05/11 11:59:35;;;;;;;3.70;1.10;;;25.20;35.20;;;;;;5054917;28;20924;-63
2021/05/11 12:02:04;;;;;;;4.20;1.20;;;25.30;35.00;;;;;;5054825;28;20409;-62
2021/05/11 12:04:31;;;;;;;4.05;1.20;;;25.20;35.10;;;;;;5053637;28;20808;-63
2021/05/11 12:07:05;;;;;;;3.50;1.20;;;25.30;35.30;;;;;;5054014;28;20846;-62
2021/05/11 12:09:32;;;;;;;4.47;1.08;;;25.30;35.30;;;;;;5054433;28;20476;-62
2021/05/11 12:12:00;;;;;;;4.18;1.10;;;25.30;35.50;;;;;;5045982;28;20428;-62
2021/05/11 12:14:26;;;;;;;4.60;1.13;;;25.30;35.40;;;;;;5034102;28;20391;-62
2021/05/11 12:16:52;;;;;;;4.07;1.30;;;25.30;35.80;;;;;;5034474;28;20470;-62
2021/05/11 12:19:18;;;;;;;3.67;1.30;;;25.40;35.60;;;;;;5033730;28;20895;-62
2021/05/11 12:21:53;;;;;;;6.63;1.13;;;25.40;35.50;;;;;;5034098;28;20419;-62
2021/05/11 12:24:27;;;;;;;4.15;1.10;;;25.40;35.50;;;;;;5034149;28;20422;-62
2021/05/11 12:26:52;;;;;;;3.88;0.95;;;25.50;35.60;;;;;;5034284;28;20914;-62
2021/05/11 12:29:19;;;;;;;5.50;1.00;;;25.50;35.50;;;;;;5034295;28;20474;-61
2021/05/11 12:31:50;;;;;;;3.58;1.10;;;25.60;35.40;;;;;;5034322;28;20457;-62
2021/05/11 12:34:23;;;;;;;3.67;1.17;;;25.70;35.10;;;;;;5034254;28;20402;-62
2021/05/11 12:36:55;;;;;;;7.00;1.00;;;25.70;36.00;;;;;;5034183;28;20481;-63
2021/05/11 12:42:27;;;;;;;5.38;0.90;;;25.80;35.60;;;;;;5033358;28;20467;-63
2021/05/11 12:45:23;;;;;;;5.10;1.20;;;25.80;35.60;;;;;;5033927;28;20946;-62
2021/05/11 12:47:59;;;;;;;3.23;0.97;;;25.80;35.90;;;;;;5017077;28;20815;-63
2021/05/11 12:50:31;;;;;;;6.15;1.10;;;25.80;35.50;;;;;;5033880;28;20391;-63
2021/05/11 12:53:05;;;;;;;4.00;1.00;;;25.80;36.20;;;;;;5033653;28;20391;-63
2021/05/11 12:59:02;;;;;;;3.38;1.10;;;25.90;35.10;;;;;;5033496;28;20976;-62
2021/05/11 13:01:26;;;;;;;4.55;1.30;;;25.90;35.10;;;;;;5032976;28;20782;-62
2021/05/11 13:25:40;;;;;;;3.13;0.80;;;26.00;35.20;;;;;;5053546;28;20381;-62
2021/05/11 13:35:31;;;;;;;3.45;0.90;;;26.00;35.00;;;;;;5052942;28;20723;-63
2021/05/11 13:37:57;;;;;;;2.97;0.90;;;26.00;35.10;;;;;;5052845;28;20892;-64
2021/05/11 13:40:23;;;;;;;3.63;0.95;;;25.90;34.80;;;;;;5052645;28;20481;-71
2021/05/11 13:42:49;;;;;;;3.00;0.80;;;26.00;34.70;;;;;;5052793;28;20400;-70
2021/05/11 13:45:15;;;;;;;2.77;0.80;;;25.90;34.80;;;;;;5052870;28;20393;-63
2021/05/11 13:47:41;;;;;;;5.35;1.08;;;25.90;34.50;;;;;;5052673;28;20869;-63
2021/05/11 13:50:12;;;;;;;3.65;1.27;;;26.00;34.80;;;;;;5052665;28;20400;-70
2021/05/11 13:52:38;;;;;;;3.60;1.60;;;25.90;35.70;;;;;;5052012;28;20381;-76
2021/05/11 13:55:10;;;;;;;5.97;1.47;;;26.00;35.50;;;;;;5052678;28;20750;-64
2021/05/11 14:03:04;;;;;;;4.28;1.35;;;26.00;35.00;;;;;;5052487;28;20373;-64
2021/05/11 14:05:30;;;;;;;4.97;1.17;;;26.00;36.70;;;;;;5052248;28;20488;-64
2021/05/11 14:07:56;;;;;;;2.92;0.90;;;26.10;37.40;;;;;;5052069;28;20864;-76
2021/05/11 14:10:22;;;;;;;4.80;0.90;;;26.10;37.40;;;;;;5052378;28;20511;-64
2021/05/11 14:12:48;;;;;;;5.72;0.95;;;26.10;36.70;;;;;;5036598;28;20510;-64
2021/05/11 14:15:15;;;;;;;3.47;0.70;;;26.10;36.90;;;;;;5032328;28;20398;-65
2021/05/11 14:17:41;;;;;;;5.65;1.40;;;26.10;37.00;;;;;;5032011;28;20392;-65
2021/05/11 14:20:08;;;;;;;3.58;1.00;;;26.10;37.00;;;;;;5032168;28;20867;-65
2021/05/11 14:22:33;;;;;;;5.82;1.02;;;26.10;36.30;;;;;;5031637;28;20867;-65
2021/05/11 14:24:59;;;;;;;4.67;1.20;;;26.00;36.30;;;;;;5032105;28;20402;-64
2021/05/11 14:27:25;;;;;;;8.25;1.45;;;26.00;36.60;;;;;;5031996;28;20386;-64
2021/05/11 14:29:51;;;;;;;5.13;1.20;;;26.00;37.50;;;;;;5031897;28;20477;-64
2021/05/11 14:32:16;;;;;;;4.38;1.30;;;26.00;37.10;;;;;;5032234;28;20393;-64
2021/05/11 14:34:42;;;;;;;5.73;1.30;;;26.00;37.00;;;;;;5031319;28;20391;-71
2021/05/11 14:37:08;;;;;;;5.50;1.10;;;26.00;36.70;;;;;;5031701;28;20387;-64
2021/05/11 14:39:33;;;;;;;6.00;0.90;;;25.90;37.20;;;;;;5031880;28;20419;-64
2021/05/11 14:41:59;;;;;;;6.25;0.90;;;26.00;37.10;;;;;;5031743;28;20871;-64
2021/05/11 14:44:26;;;;;;;4.18;0.90;;;26.00;36.40;;;;;;5031820;28;20449;-64
2021/05/11 14:46:52;;;;;;;5.47;0.80;;;26.00;36.10;;;;;;5031389;28;20388;-65
2021/05/11 14:49:19;;;;;;;2.65;0.90;;;25.90;35.90;;;;;;5031693;28;20395;-64
2021/05/11 14:51:45;;;;;;;2.78;0.80;;;25.90;36.20;;;;;;5031546;28;20399;-64
2021/05/11 14:54:11;;;;;;;2.65;0.60;;;25.90;35.90;;;;;;5029487;28;20902;-67
2021/05/11 14:56:40;;;;;;;3.83;0.70;;;25.90;35.90;;;;;;5034202;28;20396;-71
2021/05/11 14:59:10;;;;;;;8.73;1.45;;;25.90;36.50;;;;;;5047530;28;20429;-63
2021/05/11 15:01:37;;;;;;;7.47;0.82;;;25.90;36.50;;;;;;5030938;28;20403;-64
2021/05/11 15:04:03;;;;;;;5.85;0.93;;;25.90;37.10;;;;;;5029682;28;20402;-66
2021/05/11 15:06:29;;;;;;;2.90;0.73;;;25.80;36.70;;;;;;5032419;28;20389;-77
2021/05/11 15:08:55;;;;;;;6.13;1.00;;;25.80;36.50;;;;;;5039938;28;21382;-76
2021/05/11 15:11:20;;;;;;;3.88;0.60;;;25.80;37.30;;;;;;5039458;28;20401;-70
2021/05/11 15:13:49;;;;;;;4.00;0.70;;;25.80;36.40;;;;;;5039504;28;20422;-76
2021/05/11 15:16:21;;;;;;;3.22;0.65;;;25.80;36.30;;;;;;5038128;28;20405;-76
2021/05/11 15:18:47;;;;;;;2.63;0.70;;;25.80;36.40;;;;;;5038226;28;20789;-75
2021/05/11 15:21:13;;;;;;;2.63;0.90;;;25.80;36.50;;;;;;5037699;28;20907;-77
2021/05/11 15:23:39;;;;;;;4.25;0.70;;;25.80;36.70;;;;;;5038336;28;20403;-76
2021/05/11 15:26:04;;;;;;;3.05;0.50;;;25.80;36.50;;;;;;5040804;28;20414;-76
2021/05/11 15:28:30;;;;;;;3.57;0.80;;;25.80;36.50;;;;;;5038114;28;20396;-72
2021/05/11 15:30:56;;;;;;;2.35;0.70;;;25.80;36.50;;;;;;5019728;28;20405;-68
2021/05/11 15:33:22;;;;;;;2.55;0.50;;;25.80;36.50;;;;;;5039107;28;20473;-67
2021/05/11 15:35:48;;;;;;;2.70;0.60;;;25.80;36.60;;;;;;5022488;28;20417;-76
2021/05/11 15:38:14;;;;;;;2.28;0.60;;;25.80;37.40;;;;;;5020208;28;20422;-75
2021/05/11 15:40:41;;;;;;;3.33;0.70;;;25.80;37.40;;;;;;5020859;28;20751;-74
2021/05/11 15:43:08;;;;;;;2.70;0.75;;;25.80;37.60;;;;;;5040686;28;20387;-76
2021/05/11 15:45:35;;;;;;;6.95;0.80;;;25.80;37.70;;;;;;5021357;28;20753;-76
2021/05/11 15:48:03;;;;;;;2.28;0.70;;;25.80;37.80;;;;;;5037278;28;20400;-76
2021/05/11 15:50:32;;;;;;;4.05;0.75;;;25.80;37.80;;;;;;5035920;28;20403;-77
2021/05/11 15:53:02;;;;;;;2.70;0.80;;;25.80;37.80;;;;;;5040400;28;20417;-77
2021/05/11 15:55:30;;;;;;;2.30;0.70;;;25.80;37.80;;;;;;5038030;28;20379;-75
2021/05/11 15:57:55;;;;;;;2.70;0.77;;;25.80;37.90;;;;;;5037581;28;20949;-76
2021/05/11 16:00:22;;;;;;;2.23;0.60;;;25.80;37.90;;;;;;5040737;28;20409;-76
2021/05/11 16:02:48;;;;;;;3.37;0.60;;;25.80;38.00;;;;;;5034692;28;20387;-76
2021/05/11 16:05:16;;;;;;;2.77;0.73;;;25.80;38.40;;;;;;5020860;28;21069;-77
2021/05/11 16:07:41;;;;;;;2.28;0.60;;;25.80;38.20;;;;;;5037864;28;20393;-75
2021/05/11 16:10:09;;;;;;;2.80;0.60;;;25.80;38.00;;;;;;5019932;28;20403;-76
2021/05/11 16:12:36;;;;;;;1.92;0.60;;;25.70;37.90;;;;;;5038475;28;20397;-75
2021/05/11 16:15:08;;;;;;;3.63;0.50;;;25.70;37.90;;;;;;5042459;28;20395;-64
2021/05/11 16:17:34;;;;;;;2.80;0.70;;;25.60;37.90;;;;;;5024720;28;20390;-66
2021/05/11 16:19:59;;;;;;;3.95;0.55;;;25.60;38.10;;;;;;5045374;28;20414;-76
2021/05/11 16:22:25;;;;;;;3.85;0.70;;;25.60;38.10;;;;;;5043115;28;20871;-76
2021/05/11 16:24:52;;;;;;;3.70;0.60;;;25.60;38.10;;;;;;5045462;28;20762;-72
2021/05/11 16:27:18;;;;;;;2.13;0.60;;;25.60;38.20;;;;;;5042941;28;20391;-69
2021/05/11 16:29:44;;;;;;;3.13;0.60;;;25.60;38.10;;;;;;5040285;28;20400;-73
2021/05/11 16:32:12;;;;;;;4.10;0.73;;;25.60;38.10;;;;;;5042538;28;20410;-64
2021/05/11 16:34:39;;;;;;;3.20;0.70;;;25.50;38.00;;;;;;5033951;28;20481;-73
2021/05/11 16:37:06;;;;;;;6.20;1.00;;;25.50;37.90;;;;;;5016407;28;20752;-74
2021/05/11 16:39:34;;;;;;;4.40;0.90;;;25.50;38.40;;;;;;5021255;28;20415;-74
2021/05/11 16:42:00;;;;;;;5.70;0.82;;;25.40;38.60;;;;;;5019719;28;20387;-77
2021/05/11 16:44:26;;;;;;;6.00;1.20;;;25.40;39.20;;;;;;5034024;28;20435;-75
2021/05/11 16:46:52;;;;;;;5.30;1.17;;;25.40;39.10;;;;;;5040864;28;20949;-77
2021/05/11 16:49:18;;;;;;;3.50;1.07;;;25.40;39.30;;;;;;5036702;28;20802;-77
2021/05/11 16:51:44;;;;;;;2.63;1.10;;;25.30;39.30;;;;;;5041143;28;20391;-77
2021/05/11 16:54:09;;;;;;;6.27;1.10;;;25.30;40.20;;;;;;5034113;28;20457;-76
2021/05/11 16:56:36;;;;;;;5.35;1.35;;;25.30;40.20;;;;;;5033660;28;20812;-70
2021/05/11 16:59:02;;;;;;;6.95;1.23;;;25.30;41.10;;;;;;5040255;28;20428;-76
2021/05/11 17:01:27;;;;;;;3.67;1.00;;;25.20;41.40;;;;;;5053869;28;20378;-71
2021/05/11 17:03:53;;;;;;;6.50;1.00;;;25.30;42.20;;;;;;5053700;28;20393;-73
2021/05/11 17:06:18;;;;;;;3.80;1.05;;;25.30;41.90;;;;;;5053600;28;20385;-77
2021/05/11 17:08:44;;;;;;;3.95;1.10;;;25.40;43.60;;;;;;5053031;28;20401;-74
2021/05/11 17:11:10;;;;;;;5.70;1.03;;;25.40;42.50;;;;;;5052592;28;20385;-69
2021/05/11 17:13:39;;;;;;;4.20;0.90;;;25.50;42.40;;;;;;5052888;28;20448;-77
2021/05/11 17:16:10;;;;;;;4.32;0.80;;;25.40;42.30;;;;;;5035111;28;20385;-77
2021/05/11 17:18:36;;;;;;;3.10;1.00;;;25.50;41.80;;;;;;5052833;28;20488;-70
2021/05/11 17:21:04;;;;;;;3.22;0.90;;;25.40;42.30;;;;;;5053045;28;20932;-77
2021/05/11 17:23:30;;;;;;;4.13;0.80;;;25.40;42.20;;;;;;5051607;28;20821;-74